sensor_id;sensor_type;location;lat;lon;timestamp;P1;durP1;ratioP1;P2;durP2;ratioP2
42200;SDS011;27869;51.442;7.540;2023-08-06T00:00:37;6.13;;;1.50;;
42200;SDS011;27869;51.442;7.540;2023-08-06T00:03:04;5.85;;;1.60;;
42200;SDS011;27869;51.442;7.540;2023-08-06T00:05:31;5.30;;;1.63;;
42200;SDS011;27869;51.442;7.540;2023-08-06T00:07:57;5.45;;;1.60;;
42200;SDS011;27869;51.442;7.540;2023-08-06T00:10:24;8.77;;;1.70;;
42200;SDS011;27869;51.442;7.540;2023-08-06T00:12:52;5.85;;;1.67;;
42200;SDS011;27869;51.442;7.540;2023-08-06T00:15:19;5.35;;;1.70;;
42200;SDS011;27869;51.442;7.540;2023-08-06T00:17:46;3.83;;;1.40;;
42200;SDS011;27869;51.442;7.540;2023-08-06T00:20:13;7.50;;;1.70;;
42200;SDS011;27869;51.442;7.540;2023-08-06T00:22:40;6.82;;;1.60;;
42200;SDS011;27869;51.442;7.540;2023-08-06T00:25:07;4.88;;;1.50;;
42200;SDS011;27869;51.442;7.540;2023-08-06T00:27:35;7.18;;;1.52;;
42200;SDS011;27869;51.442;7.540;2023-08-06T00:30:04;6.68;;;1.50;;
42200;SDS011;27869;51.442;7.540;2023-08-06T00:32:31;6.45;;;1.50;;
42200;SDS011;27869;51.442;7.540;2023-08-06T00:34:58;4.55;;;1.50;;
42200;SDS011;27869;51.442;7.540;2023-08-06T00:37:25;4.47;;;1.45;;
42200;SDS011;27869;51.442;7.540;2023-08-06T00:39:52;7.47;;;1.60;;
42200;SDS011;27869;51.442;7.540;2023-08-06T00:42:19;6.10;;;1.40;;
42200;SDS011;27869;51.442;7.540;2023-08-06T00:44:47;4.53;;;1.20;;
42200;SDS011;27869;51.442;7.540;2023-08-06T00:47:15;4.35;;;1.50;;
42200;SDS011;27869;51.442;7.540;2023-08-06T00:49:42;7.47;;;1.75;;
42200;SDS011;27869;51.442;7.540;2023-08-06T00:52:10;6.90;;;1.70;;
42200;SDS011;27869;51.442;7.540;2023-08-06T00:54:38;5.60;;;1.60;;
42200;SDS011;27869;51.442;7.540;2023-08-06T00:57:05;5.72;;;1.48;;
42200;SDS011;27869;51.442;7.540;2023-08-06T00:59:34;6.53;;;1.58;;
42200;SDS011;27869;51.442;7.540;2023-08-06T01:02:01;4.57;;;1.38;;
42200;SDS011;27869;51.442;7.540;2023-08-06T01:04:29;4.68;;;1.40;;
42200;SDS011;27869;51.442;7.540;2023-08-06T01:07:01;4.30;;;1.50;;
42200;SDS011;27869;51.442;7.540;2023-08-06T01:09:35;7.05;;;1.60;;
42200;SDS011;27869;51.442;7.540;2023-08-06T01:12:13;6.88;;;1.50;;
42200;SDS011;27869;51.442;7.540;2023-08-06T01:14:52;5.22;;;1.55;;
42200;SDS011;27869;51.442;7.540;2023-08-06T01:17:24;6.40;;;1.60;;
42200;SDS011;27869;51.442;7.540;2023-08-06T01:19:54;5.53;;;1.60;;
42200;SDS011;27869;51.442;7.540;2023-08-06T01:22:22;4.97;;;1.35;;
42200;SDS011;27869;51.442;7.540;2023-08-06T01:24:49;5.90;;;1.40;;
42200;SDS011;27869;51.442;7.540;2023-08-06T01:27:18;4.90;;;1.50;;
42200;SDS011;27869;51.442;7.540;2023-08-06T01:29:53;5.85;;;1.60;;
42200;SDS011;27869;51.442;7.540;2023-08-06T01:32:28;5.70;;;1.40;;
42200;SDS011;27869;51.442;7.540;2023-08-06T01:34:58;4.93;;;1.50;;
42200;SDS011;27869;51.442;7.540;2023-08-06T01:37:28;4.55;;;1.60;;
42200;SDS011;27869;51.442;7.540;2023-08-06T01:39:56;6.43;;;1.50;;
42200;SDS011;27869;51.442;7.540;2023-08-06T01:42:23;5.60;;;1.58;;
42200;SDS011;27869;51.442;7.540;2023-08-06T01:44:50;5.10;;;1.40;;
42200;SDS011;27869;51.442;7.540;2023-08-06T01:47:17;10.52;;;1.67;;
42200;SDS011;27869;51.442;7.540;2023-08-06T01:49:44;8.23;;;1.65;;
42200;SDS011;27869;51.442;7.540;2023-08-06T01:52:11;4.25;;;1.50;;
42200;SDS011;27869;51.442;7.540;2023-08-06T01:54:39;9.98;;;1.67;;
42200;SDS011;27869;51.442;7.540;2023-08-06T01:57:06;4.53;;;1.40;;
42200;SDS011;27869;51.442;7.540;2023-08-06T01:59:32;7.18;;;1.60;;
42200;SDS011;27869;51.442;7.540;2023-08-06T02:01:59;10.65;;;1.80;;
42200;SDS011;27869;51.442;7.540;2023-08-06T02:04:26;6.00;;;1.60;;
42200;SDS011;27869;51.442;7.540;2023-08-06T02:06:53;7.50;;;1.70;;
42200;SDS011;27869;51.442;7.540;2023-08-06T02:09:20;5.15;;;1.58;;
42200;SDS011;27869;51.442;7.540;2023-08-06T02:11:48;6.80;;;1.80;;
42200;SDS011;27869;51.442;7.540;2023-08-06T02:14:15;5.45;;;1.42;;
42200;SDS011;27869;51.442;7.540;2023-08-06T02:16:42;6.20;;;1.80;;
42200;SDS011;27869;51.442;7.540;2023-08-06T02:19:08;5.80;;;1.70;;
42200;SDS011;27869;51.442;7.540;2023-08-06T02:21:35;7.63;;;1.55;;
42200;SDS011;27869;51.442;7.540;2023-08-06T02:24:02;6.22;;;1.60;;
42200;SDS011;27869;51.442;7.540;2023-08-06T02:26:29;5.85;;;1.50;;
42200;SDS011;27869;51.442;7.540;2023-08-06T02:28:58;4.85;;;1.50;;
42200;SDS011;27869;51.442;7.540;2023-08-06T02:31:25;6.60;;;1.50;;
42200;SDS011;27869;51.442;7.540;2023-08-06T02:33:51;6.05;;;1.70;;
42200;SDS011;27869;51.442;7.540;2023-08-06T02:36:19;5.72;;;1.58;;
42200;SDS011;27869;51.442;7.540;2023-08-06T02:38:45;6.68;;;1.67;;
42200;SDS011;27869;51.442;7.540;2023-08-06T02:41:13;3.80;;;1.50;;
42200;SDS011;27869;51.442;7.540;2023-08-06T02:43:40;5.85;;;1.60;;
42200;SDS011;27869;51.442;7.540;2023-08-06T02:46:08;5.22;;;1.60;;
42200;SDS011;27869;51.442;7.540;2023-08-06T02:48:35;4.30;;;1.52;;
42200;SDS011;27869;51.442;7.540;2023-08-06T02:51:01;5.18;;;1.80;;
42200;SDS011;27869;51.442;7.540;2023-08-06T02:53:28;4.75;;;1.45;;
42200;SDS011;27869;51.442;7.540;2023-08-06T02:55:56;5.82;;;1.30;;
42200;SDS011;27869;51.442;7.540;2023-08-06T02:58:24;5.93;;;1.60;;
42200;SDS011;27869;51.442;7.540;2023-08-06T03:01:00;7.03;;;1.58;;
42200;SDS011;27869;51.442;7.540;2023-08-06T03:03:29;5.10;;;1.80;;
42200;SDS011;27869;51.442;7.540;2023-08-06T03:05:56;4.47;;;1.50;;
42200;SDS011;27869;51.442;7.540;2023-08-06T03:08:23;8.90;;;2.08;;
42200;SDS011;27869;51.442;7.540;2023-08-06T03:10:51;6.30;;;1.70;;
42200;SDS011;27869;51.442;7.540;2023-08-06T03:13:18;4.75;;;1.50;;
42200;SDS011;27869;51.442;7.540;2023-08-06T03:15:51;5.22;;;1.70;;
42200;SDS011;27869;51.442;7.540;2023-08-06T03:18:19;10.32;;;1.70;;
42200;SDS011;27869;51.442;7.540;2023-08-06T03:20:47;6.70;;;1.38;;
42200;SDS011;27869;51.442;7.540;2023-08-06T03:23:14;9.35;;;1.50;;
42200;SDS011;27869;51.442;7.540;2023-08-06T03:25:40;5.90;;;1.60;;
42200;SDS011;27869;51.442;7.540;2023-08-06T03:28:07;8.65;;;1.60;;
42200;SDS011;27869;51.442;7.540;2023-08-06T03:30:34;10.35;;;1.80;;
42200;SDS011;27869;51.442;7.540;2023-08-06T03:33:01;5.82;;;1.67;;
42200;SDS011;27869;51.442;7.540;2023-08-06T03:35:28;4.22;;;1.60;;
42200;SDS011;27869;51.442;7.540;2023-08-06T03:37:56;4.18;;;1.40;;
42200;SDS011;27869;51.442;7.540;2023-08-06T03:40:23;29.17;;;2.10;;
42200;SDS011;27869;51.442;7.540;2023-08-06T03:42:50;9.02;;;1.70;;
42200;SDS011;27869;51.442;7.540;2023-08-06T03:45:16;11.02;;;1.63;;
42200;SDS011;27869;51.442;7.540;2023-08-06T03:47:43;6.55;;;1.63;;
42200;SDS011;27869;51.442;7.540;2023-08-06T03:50:10;7.93;;;1.80;;
42200;SDS011;27869;51.442;7.540;2023-08-06T03:52:37;7.75;;;1.80;;
42200;SDS011;27869;51.442;7.540;2023-08-06T03:55:05;5.65;;;1.50;;
42200;SDS011;27869;51.442;7.540;2023-08-06T03:57:32;7.45;;;1.60;;
42200;SDS011;27869;51.442;7.540;2023-08-06T03:59:59;4.03;;;1.48;;
42200;SDS011;27869;51.442;7.540;2023-08-06T04:02:27;4.65;;;1.67;;
42200;SDS011;27869;51.442;7.540;2023-08-06T04:04:54;7.65;;;2.03;;
42200;SDS011;27869;51.442;7.540;2023-08-06T04:07:21;7.28;;;1.88;;
42200;SDS011;27869;51.442;7.540;2023-08-06T04:09:53;11.45;;;1.92;;
42200;SDS011;27869;51.442;7.540;2023-08-06T04:12:22;4.57;;;1.65;;
42200;SDS011;27869;51.442;7.540;2023-08-06T04:14:50;9.13;;;1.60;;
42200;SDS011;27869;51.442;7.540;2023-08-06T04:17:17;8.93;;;1.60;;
42200;SDS011;27869;51.442;7.540;2023-08-06T04:19:45;7.45;;;1.80;;
42200;SDS011;27869;51.442;7.540;2023-08-06T04:22:13;7.00;;;1.70;;
42200;SDS011;27869;51.442;7.540;2023-08-06T04:24:40;7.35;;;1.63;;
42200;SDS011;27869;51.442;7.540;2023-08-06T04:27:08;4.82;;;1.40;;
42200;SDS011;27869;51.442;7.540;2023-08-06T04:29:36;9.73;;;1.80;;
42200;SDS011;27869;51.442;7.540;2023-08-06T04:32:05;7.57;;;1.60;;
42200;SDS011;27869;51.442;7.540;2023-08-06T04:34:33;6.78;;;1.60;;
42200;SDS011;27869;51.442;7.540;2023-08-06T04:37:00;5.05;;;1.63;;
42200;SDS011;27869;51.442;7.540;2023-08-06T04:39:27;5.40;;;1.48;;
42200;SDS011;27869;51.442;7.540;2023-08-06T04:41:54;5.53;;;1.73;;
42200;SDS011;27869;51.442;7.540;2023-08-06T04:44:21;6.20;;;1.50;;
42200;SDS011;27869;51.442;7.540;2023-08-06T04:46:50;6.97;;;1.55;;
42200;SDS011;27869;51.442;7.540;2023-08-06T04:49:17;8.02;;;1.60;;
42200;SDS011;27869;51.442;7.540;2023-08-06T04:51:43;7.32;;;1.60;;
42200;SDS011;27869;51.442;7.540;2023-08-06T04:54:10;8.40;;;1.80;;
42200;SDS011;27869;51.442;7.540;2023-08-06T04:56:37;10.55;;;1.90;;
42200;SDS011;27869;51.442;7.540;2023-08-06T04:59:04;11.55;;;1.80;;
42200;SDS011;27869;51.442;7.540;2023-08-06T05:01:31;5.68;;;1.63;;
42200;SDS011;27869;51.442;7.540;2023-08-06T05:03:59;8.23;;;1.90;;
42200;SDS011;27869;51.442;7.540;2023-08-06T05:06:26;8.77;;;1.88;;
42200;SDS011;27869;51.442;7.540;2023-08-06T05:08:53;7.07;;;1.67;;
42200;SDS011;27869;51.442;7.540;2023-08-06T05:11:20;6.28;;;1.73;;
42200;SDS011;27869;51.442;7.540;2023-08-06T05:13:46;6.07;;;1.58;;
42200;SDS011;27869;51.442;7.540;2023-08-06T05:16:13;8.40;;;1.80;;
42200;SDS011;27869;51.442;7.540;2023-08-06T05:18:40;6.88;;;1.85;;
42200;SDS011;27869;51.442;7.540;2023-08-06T05:21:08;4.75;;;1.67;;
42200;SDS011;27869;51.442;7.540;2023-08-06T05:23:35;5.80;;;1.88;;
42200;SDS011;27869;51.442;7.540;2023-08-06T05:26:02;7.68;;;1.73;;
42200;SDS011;27869;51.442;7.540;2023-08-06T05:28:30;5.22;;;1.63;;
42200;SDS011;27869;51.442;7.540;2023-08-06T05:30:57;7.15;;;1.60;;
42200;SDS011;27869;51.442;7.540;2023-08-06T05:33:24;5.47;;;1.70;;
42200;SDS011;27869;51.442;7.540;2023-08-06T05:35:51;6.38;;;1.67;;
42200;SDS011;27869;51.442;7.540;2023-08-06T05:38:19;6.47;;;1.50;;
42200;SDS011;27869;51.442;7.540;2023-08-06T05:40:46;4.45;;;1.55;;
42200;SDS011;27869;51.442;7.540;2023-08-06T05:43:14;7.07;;;1.60;;
42200;SDS011;27869;51.442;7.540;2023-08-06T05:45:43;6.63;;;1.80;;
42200;SDS011;27869;51.442;7.540;2023-08-06T05:48:11;5.65;;;1.80;;
42200;SDS011;27869;51.442;7.540;2023-08-06T05:50:38;6.45;;;2.00;;
42200;SDS011;27869;51.442;7.540;2023-08-06T05:53:05;6.47;;;1.70;;
42200;SDS011;27869;51.442;7.540;2023-08-06T05:55:33;5.40;;;1.63;;
42200;SDS011;27869;51.442;7.540;2023-08-06T05:58:00;4.60;;;1.60;;
42200;SDS011;27869;51.442;7.540;2023-08-06T06:00:27;5.10;;;1.80;;
42200;SDS011;27869;51.442;7.540;2023-08-06T06:02:54;6.65;;;1.50;;
42200;SDS011;27869;51.442;7.540;2023-08-06T06:05:21;4.75;;;1.35;;
42200;SDS011;27869;51.442;7.540;2023-08-06T06:07:48;5.50;;;1.50;;
42200;SDS011;27869;51.442;7.540;2023-08-06T06:10:14;10.00;;;1.50;;
42200;SDS011;27869;51.442;7.540;2023-08-06T06:12:43;10.85;;;1.60;;
42200;SDS011;27869;51.442;7.540;2023-08-06T06:15:10;4.20;;;1.40;;
42200;SDS011;27869;51.442;7.540;2023-08-06T06:17:39;6.40;;;1.40;;
42200;SDS011;27869;51.442;7.540;2023-08-06T06:20:06;6.82;;;1.58;;
42200;SDS011;27869;51.442;7.540;2023-08-06T06:22:34;6.22;;;1.67;;
42200;SDS011;27869;51.442;7.540;2023-08-06T06:25:00;8.25;;;1.50;;
42200;SDS011;27869;51.442;7.540;2023-08-06T06:27:27;4.80;;;1.33;;
42200;SDS011;27869;51.442;7.540;2023-08-06T06:29:55;4.25;;;1.30;;
42200;SDS011;27869;51.442;7.540;2023-08-06T06:32:22;7.05;;;1.40;;
42200;SDS011;27869;51.442;7.540;2023-08-06T06:34:49;3.92;;;1.50;;
42200;SDS011;27869;51.442;7.540;2023-08-06T06:37:16;4.82;;;1.33;;
42200;SDS011;27869;51.442;7.540;2023-08-06T06:39:43;5.28;;;1.20;;
42200;SDS011;27869;51.442;7.540;2023-08-06T06:42:10;4.15;;;1.08;;
42200;SDS011;27869;51.442;7.540;2023-08-06T06:44:37;6.57;;;1.35;;
42200;SDS011;27869;51.442;7.540;2023-08-06T06:47:05;4.60;;;1.40;;
42200;SDS011;27869;51.442;7.540;2023-08-06T06:49:32;4.32;;;1.23;;
42200;SDS011;27869;51.442;7.540;2023-08-06T06:51:59;6.45;;;1.30;;
42200;SDS011;27869;51.442;7.540;2023-08-06T06:54:25;3.58;;;1.13;;
42200;SDS011;27869;51.442;7.540;2023-08-06T06:56:52;3.90;;;1.13;;
42200;SDS011;27869;51.442;7.540;2023-08-06T06:59:19;4.63;;;1.02;;
42200;SDS011;27869;51.442;7.540;2023-08-06T07:01:46;5.07;;;1.17;;
42200;SDS011;27869;51.442;7.540;2023-08-06T07:04:17;3.23;;;1.20;;
42200;SDS011;27869;51.442;7.540;2023-08-06T07:06:43;3.20;;;1.17;;
42200;SDS011;27869;51.442;7.540;2023-08-06T07:09:10;5.93;;;1.13;;
42200;SDS011;27869;51.442;7.540;2023-08-06T07:11:37;3.92;;;1.20;;
42200;SDS011;27869;51.442;7.540;2023-08-06T07:14:04;4.13;;;1.20;;
42200;SDS011;27869;51.442;7.540;2023-08-06T07:16:31;3.97;;;1.30;;
42200;SDS011;27869;51.442;7.540;2023-08-06T07:18:58;6.22;;;1.27;;
42200;SDS011;27869;51.442;7.540;2023-08-06T07:21:27;5.72;;;1.15;;
42200;SDS011;27869;51.442;7.540;2023-08-06T07:23:53;5.18;;;1.20;;
42200;SDS011;27869;51.442;7.540;2023-08-06T07:26:20;4.07;;;1.00;;
42200;SDS011;27869;51.442;7.540;2023-08-06T07:28:47;6.63;;;1.10;;
42200;SDS011;27869;51.442;7.540;2023-08-06T07:31:14;4.85;;;0.98;;
42200;SDS011;27869;51.442;7.540;2023-08-06T07:33:41;2.35;;;0.73;;
42200;SDS011;27869;51.442;7.540;2023-08-06T07:36:08;3.92;;;0.93;;
42200;SDS011;27869;51.442;7.540;2023-08-06T07:38:37;4.40;;;0.90;;
42200;SDS011;27869;51.442;7.540;2023-08-06T07:41:04;3.50;;;0.95;;
42200;SDS011;27869;51.442;7.540;2023-08-06T07:43:31;4.43;;;1.10;;
42200;SDS011;27869;51.442;7.540;2023-08-06T07:45:58;5.35;;;1.13;;
42200;SDS011;27869;51.442;7.540;2023-08-06T07:48:25;4.15;;;0.95;;
42200;SDS011;27869;51.442;7.540;2023-08-06T07:50:52;4.88;;;1.10;;
42200;SDS011;27869;51.442;7.540;2023-08-06T07:53:19;4.35;;;1.02;;
42200;SDS011;27869;51.442;7.540;2023-08-06T07:55:49;4.53;;;1.02;;
42200;SDS011;27869;51.442;7.540;2023-08-06T07:58:17;4.72;;;1.00;;
42200;SDS011;27869;51.442;7.540;2023-08-06T08:00:44;3.50;;;1.10;;
42200;SDS011;27869;51.442;7.540;2023-08-06T08:03:11;3.35;;;1.15;;
42200;SDS011;27869;51.442;7.540;2023-08-06T08:05:39;7.45;;;1.30;;
42200;SDS011;27869;51.442;7.540;2023-08-06T08:08:06;4.35;;;1.30;;
42200;SDS011;27869;51.442;7.540;2023-08-06T08:10:33;5.15;;;1.10;;
42200;SDS011;27869;51.442;7.540;2023-08-06T08:13:02;5.60;;;1.17;;
42200;SDS011;27869;51.442;7.540;2023-08-06T08:15:30;3.25;;;1.15;;
42200;SDS011;27869;51.442;7.540;2023-08-06T08:17:57;4.03;;;1.10;;
42200;SDS011;27869;51.442;7.540;2023-08-06T08:20:25;5.95;;;1.10;;
42200;SDS011;27869;51.442;7.540;2023-08-06T08:22:56;3.70;;;1.10;;
42200;SDS011;27869;51.442;7.540;2023-08-06T08:25:24;7.43;;;1.50;;
42200;SDS011;27869;51.442;7.540;2023-08-06T08:27:51;8.85;;;1.60;;
42200;SDS011;27869;51.442;7.540;2023-08-06T08:30:20;5.32;;;1.40;;
42200;SDS011;27869;51.442;7.540;2023-08-06T08:32:47;3.92;;;0.98;;
42200;SDS011;27869;51.442;7.540;2023-08-06T08:35:14;7.07;;;1.30;;
42200;SDS011;27869;51.442;7.540;2023-08-06T08:37:41;4.30;;;1.10;;
42200;SDS011;27869;51.442;7.540;2023-08-06T08:40:08;5.05;;;1.20;;
42200;SDS011;27869;51.442;7.540;2023-08-06T08:42:35;8.35;;;1.40;;
42200;SDS011;27869;51.442;7.540;2023-08-06T08:45:03;4.32;;;1.50;;
42200;SDS011;27869;51.442;7.540;2023-08-06T08:47:34;3.70;;;1.20;;
42200;SDS011;27869;51.442;7.540;2023-08-06T08:52:29;3.30;;;1.10;;
42200;SDS011;27869;51.442;7.540;2023-08-06T08:57:25;7.68;;;1.30;;
42200;SDS011;27869;51.442;7.540;2023-08-06T08:59:52;3.95;;;1.13;;
42200;SDS011;27869;51.442;7.540;2023-08-06T09:02:19;5.88;;;1.33;;
42200;SDS011;27869;51.442;7.540;2023-08-06T09:04:51;8.38;;;1.30;;
42200;SDS011;27869;51.442;7.540;2023-08-06T09:09:46;5.65;;;1.15;;
42200;SDS011;27869;51.442;7.540;2023-08-06T09:12:16;3.50;;;1.08;;
42200;SDS011;27869;51.442;7.540;2023-08-06T09:14:43;5.18;;;1.10;;
42200;SDS011;27869;51.442;7.540;2023-08-06T09:17:10;4.90;;;1.20;;
42200;SDS011;27869;51.442;7.540;2023-08-06T09:19:37;4.85;;;1.10;;
42200;SDS011;27869;51.442;7.540;2023-08-06T09:22:05;5.65;;;1.30;;
42200;SDS011;27869;51.442;7.540;2023-08-06T09:24:38;6.25;;;1.20;;
42200;SDS011;27869;51.442;7.540;2023-08-06T09:27:08;4.93;;;1.17;;
42200;SDS011;27869;51.442;7.540;2023-08-06T09:29:39;4.00;;;1.20;;
42200;SDS011;27869;51.442;7.540;2023-08-06T09:32:07;3.97;;;1.10;;
42200;SDS011;27869;51.442;7.540;2023-08-06T09:34:34;3.60;;;1.10;;
42200;SDS011;27869;51.442;7.540;2023-08-06T09:37:00;5.80;;;1.27;;
42200;SDS011;27869;51.442;7.540;2023-08-06T09:39:30;3.95;;;1.20;;
42200;SDS011;27869;51.442;7.540;2023-08-06T09:41:58;5.35;;;1.30;;
42200;SDS011;27869;51.442;7.540;2023-08-06T09:44:26;5.88;;;1.20;;
42200;SDS011;27869;51.442;7.540;2023-08-06T09:46:54;4.32;;;1.27;;
42200;SDS011;27869;51.442;7.540;2023-08-06T09:49:24;3.92;;;1.15;;
42200;SDS011;27869;51.442;7.540;2023-08-06T09:51:53;3.13;;;1.20;;
42200;SDS011;27869;51.442;7.540;2023-08-06T09:54:22;4.47;;;1.20;;
42200;SDS011;27869;51.442;7.540;2023-08-06T09:56:50;5.60;;;1.00;;
42200;SDS011;27869;51.442;7.540;2023-08-06T09:59:18;5.15;;;1.10;;
42200;SDS011;27869;51.442;7.540;2023-08-06T10:01:45;4.15;;;1.33;;
42200;SDS011;27869;51.442;7.540;2023-08-06T10:04:13;4.65;;;1.40;;
42200;SDS011;27869;51.442;7.540;2023-08-06T10:06:42;4.00;;;1.20;;
42200;SDS011;27869;51.442;7.540;2023-08-06T10:09:12;3.90;;;1.25;;
42200;SDS011;27869;51.442;7.540;2023-08-06T10:11:39;4.93;;;1.20;;
42200;SDS011;27869;51.442;7.540;2023-08-06T10:14:11;6.50;;;1.42;;
42200;SDS011;27869;51.442;7.540;2023-08-06T10:16:42;7.22;;;1.50;;
42200;SDS011;27869;51.442;7.540;2023-08-06T10:19:10;4.03;;;1.40;;
42200;SDS011;27869;51.442;7.540;2023-08-06T10:21:38;3.90;;;1.60;;
42200;SDS011;27869;51.442;7.540;2023-08-06T10:24:06;3.50;;;1.33;;
42200;SDS011;27869;51.442;7.540;2023-08-06T10:26:35;7.18;;;1.55;;
42200;SDS011;27869;51.442;7.540;2023-08-06T10:29:14;6.60;;;1.90;;
42200;SDS011;27869;51.442;7.540;2023-08-06T10:32:03;4.55;;;1.40;;
42200;SDS011;27869;51.442;7.540;2023-08-06T10:37:20;7.50;;;2.28;;
42200;SDS011;27869;51.442;7.540;2023-08-06T10:39:48;9.60;;;3.40;;
42200;SDS011;27869;51.442;7.540;2023-08-06T10:42:20;10.35;;;3.25;;
42200;SDS011;27869;51.442;7.540;2023-08-06T10:47:44;10.60;;;3.50;;
42200;SDS011;27869;51.442;7.540;2023-08-06T10:50:11;11.02;;;4.32;;
42200;SDS011;27869;51.442;7.540;2023-08-06T10:52:41;10.00;;;3.63;;
42200;SDS011;27869;51.442;7.540;2023-08-06T10:55:08;11.05;;;3.83;;
42200;SDS011;27869;51.442;7.540;2023-08-06T10:57:36;12.43;;;4.03;;
42200;SDS011;27869;51.442;7.540;2023-08-06T11:00:04;10.15;;;3.63;;
42200;SDS011;27869;51.442;7.540;2023-08-06T11:02:33;12.15;;;3.80;;
42200;SDS011;27869;51.442;7.540;2023-08-06T11:05:05;9.55;;;3.35;;
42200;SDS011;27869;51.442;7.540;2023-08-06T11:07:33;11.25;;;3.10;;
42200;SDS011;27869;51.442;7.540;2023-08-06T11:10:01;10.82;;;2.70;;
42200;SDS011;27869;51.442;7.540;2023-08-06T11:12:29;8.05;;;2.20;;
42200;SDS011;27869;51.442;7.540;2023-08-06T11:14:56;5.57;;;1.52;;
42200;SDS011;27869;51.442;7.540;2023-08-06T11:17:23;6.25;;;2.30;;
42200;SDS011;27869;51.442;7.540;2023-08-06T11:19:50;9.60;;;2.00;;
42200;SDS011;27869;51.442;7.540;2023-08-06T11:22:20;6.80;;;1.92;;
42200;SDS011;27869;51.442;7.540;2023-08-06T11:24:47;6.07;;;1.83;;
42200;SDS011;27869;51.442;7.540;2023-08-06T11:27:14;8.93;;;2.10;;
42200;SDS011;27869;51.442;7.540;2023-08-06T11:29:42;6.93;;;1.88;;
42200;SDS011;27869;51.442;7.540;2023-08-06T11:32:10;6.40;;;1.60;;
42200;SDS011;27869;51.442;7.540;2023-08-06T11:34:37;5.22;;;1.50;;
42200;SDS011;27869;51.442;7.540;2023-08-06T11:37:06;5.25;;;1.60;;
42200;SDS011;27869;51.442;7.540;2023-08-06T11:42:04;5.28;;;1.60;;
42200;SDS011;27869;51.442;7.540;2023-08-06T11:44:32;4.55;;;1.48;;
42200;SDS011;27869;51.442;7.540;2023-08-06T11:47:01;5.07;;;1.52;;
42200;SDS011;27869;51.442;7.540;2023-08-06T11:49:40;4.97;;;1.50;;
42200;SDS011;27869;51.442;7.540;2023-08-06T11:52:10;5.15;;;1.48;;
42200;SDS011;27869;51.442;7.540;2023-08-06T11:54:40;6.68;;;1.52;;
42200;SDS011;27869;51.442;7.540;2023-08-06T11:57:07;5.53;;;1.70;;
42200;SDS011;27869;51.442;7.540;2023-08-06T11:59:34;6.18;;;1.70;;
42200;SDS011;27869;51.442;7.540;2023-08-06T12:02:03;6.15;;;1.60;;
42200;SDS011;27869;51.442;7.540;2023-08-06T12:04:31;6.75;;;1.65;;
42200;SDS011;27869;51.442;7.540;2023-08-06T12:07:04;7.80;;;1.55;;
42200;SDS011;27869;51.442;7.540;2023-08-06T12:09:32;7.40;;;2.05;;
42200;SDS011;27869;51.442;7.540;2023-08-06T12:12:02;5.22;;;1.60;;
42200;SDS011;27869;51.442;7.540;2023-08-06T12:14:30;6.88;;;1.77;;
42200;SDS011;27869;51.442;7.540;2023-08-06T12:16:57;6.22;;;1.60;;
42200;SDS011;27869;51.442;7.540;2023-08-06T12:19:27;5.80;;;1.73;;
42200;SDS011;27869;51.442;7.540;2023-08-06T12:21:55;4.72;;;1.35;;
42200;SDS011;27869;51.442;7.540;2023-08-06T12:24:22;4.72;;;1.35;;
42200;SDS011;27869;51.442;7.540;2023-08-06T12:26:49;6.88;;;1.80;;
42200;SDS011;27869;51.442;7.540;2023-08-06T12:29:17;5.30;;;1.63;;
42200;SDS011;27869;51.442;7.540;2023-08-06T12:31:44;7.18;;;1.83;;
42200;SDS011;27869;51.442;7.540;2023-08-06T12:34:10;4.88;;;1.55;;
42200;SDS011;27869;51.442;7.540;2023-08-06T12:36:37;7.90;;;2.08;;
42200;SDS011;27869;51.442;7.540;2023-08-06T12:39:04;6.53;;;1.92;;
42200;SDS011;27869;51.442;7.540;2023-08-06T12:41:31;7.93;;;2.22;;
42200;SDS011;27869;51.442;7.540;2023-08-06T12:44:01;8.55;;;2.13;;
42200;SDS011;27869;51.442;7.540;2023-08-06T12:46:29;6.32;;;2.13;;
42200;SDS011;27869;51.442;7.540;2023-08-06T12:51:23;8.77;;;2.33;;
42200;SDS011;27869;51.442;7.540;2023-08-06T12:53:51;6.15;;;1.70;;
42200;SDS011;27869;51.442;7.540;2023-08-06T12:56:18;7.30;;;1.88;;
42200;SDS011;27869;51.442;7.540;2023-08-06T12:58:44;4.55;;;1.73;;
42200;SDS011;27869;51.442;7.540;2023-08-06T13:01:11;4.32;;;1.50;;
42200;SDS011;27869;51.442;7.540;2023-08-06T13:03:40;4.00;;;1.45;;
42200;SDS011;27869;51.442;7.540;2023-08-06T13:06:06;5.65;;;1.80;;
42200;SDS011;27869;51.442;7.540;2023-08-06T13:08:34;7.22;;;2.00;;
42200;SDS011;27869;51.442;7.540;2023-08-06T13:11:01;4.47;;;1.73;;
42200;SDS011;27869;51.442;7.540;2023-08-06T13:13:28;4.85;;;1.60;;
42200;SDS011;27869;51.442;7.540;2023-08-06T13:15:55;3.47;;;1.17;;
42200;SDS011;27869;51.442;7.540;2023-08-06T13:18:22;4.25;;;1.20;;
42200;SDS011;27869;51.442;7.540;2023-08-06T13:20:51;3.13;;;1.08;;
42200;SDS011;27869;51.442;7.540;2023-08-06T13:23:19;1.90;;;0.88;;
42200;SDS011;27869;51.442;7.540;2023-08-06T13:25:46;2.78;;;0.80;;
42200;SDS011;27869;51.442;7.540;2023-08-06T13:28:13;1.55;;;0.60;;
42200;SDS011;27869;51.442;7.540;2023-08-06T13:30:40;2.83;;;0.60;;
42200;SDS011;27869;51.442;7.540;2023-08-06T13:33:07;2.10;;;0.60;;
42200;SDS011;27869;51.442;7.540;2023-08-06T13:35:34;2.67;;;0.70;;
42200;SDS011;27869;51.442;7.540;2023-08-06T13:38:02;2.28;;;0.60;;
42200;SDS011;27869;51.442;7.540;2023-08-06T13:40:29;0.75;;;0.40;;
42200;SDS011;27869;51.442;7.540;2023-08-06T13:45:25;1.77;;;0.45;;
42200;SDS011;27869;51.442;7.540;2023-08-06T13:47:53;1.02;;;0.50;;
42200;SDS011;27869;51.442;7.540;2023-08-06T13:50:21;1.30;;;0.47;;
42200;SDS011;27869;51.442;7.540;2023-08-06T13:52:50;2.33;;;0.50;;
42200;SDS011;27869;51.442;7.540;2023-08-06T13:55:21;0.70;;;0.30;;
42200;SDS011;27869;51.442;7.540;2023-08-06T13:57:48;1.95;;;0.50;;
42200;SDS011;27869;51.442;7.540;2023-08-06T14:00:16;0.80;;;0.40;;
42200;SDS011;27869;51.442;7.540;2023-08-06T14:02:43;0.40;;;0.30;;
42200;SDS011;27869;51.442;7.540;2023-08-06T14:05:10;1.60;;;0.43;;
42200;SDS011;27869;51.442;7.540;2023-08-06T14:07:36;1.42;;;0.43;;
42200;SDS011;27869;51.442;7.540;2023-08-06T14:10:04;3.08;;;0.52;;
42200;SDS011;27869;51.442;7.540;2023-08-06T14:12:33;1.52;;;0.40;;
42200;SDS011;27869;51.442;7.540;2023-08-06T14:15:00;0.82;;;0.43;;
42200;SDS011;27869;51.442;7.540;2023-08-06T14:17:28;0.93;;;0.50;;
42200;SDS011;27869;51.442;7.540;2023-08-06T14:19:55;3.63;;;0.50;;
42200;SDS011;27869;51.442;7.540;2023-08-06T14:22:22;0.90;;;0.43;;
42200;SDS011;27869;51.442;7.540;2023-08-06T14:24:49;1.52;;;0.70;;
42200;SDS011;27869;51.442;7.540;2023-08-06T14:27:15;2.63;;;0.60;;
42200;SDS011;27869;51.442;7.540;2023-08-06T14:29:44;2.67;;;0.50;;
42200;SDS011;27869;51.442;7.540;2023-08-06T14:32:10;1.65;;;0.50;;
42200;SDS011;27869;51.442;7.540;2023-08-06T14:34:37;1.15;;;0.50;;
42200;SDS011;27869;51.442;7.540;2023-08-06T14:37:04;1.45;;;0.52;;
42200;SDS011;27869;51.442;7.540;2023-08-06T14:39:31;1.25;;;0.55;;
42200;SDS011;27869;51.442;7.540;2023-08-06T14:41:58;4.05;;;0.98;;
42200;SDS011;27869;51.442;7.540;2023-08-06T14:44:24;2.45;;;0.90;;
42200;SDS011;27869;51.442;7.540;2023-08-06T14:46:53;1.73;;;0.60;;
42200;SDS011;27869;51.442;7.540;2023-08-06T14:49:19;2.33;;;0.68;;
42200;SDS011;27869;51.442;7.540;2023-08-06T14:51:46;2.95;;;0.80;;
42200;SDS011;27869;51.442;7.540;2023-08-06T14:54:16;2.42;;;0.70;;
42200;SDS011;27869;51.442;7.540;2023-08-06T14:56:43;1.80;;;0.60;;
42200;SDS011;27869;51.442;7.540;2023-08-06T14:59:10;3.42;;;0.70;;
42200;SDS011;27869;51.442;7.540;2023-08-06T15:01:37;1.90;;;0.70;;
42200;SDS011;27869;51.442;7.540;2023-08-06T15:04:05;3.85;;;0.77;;
42200;SDS011;27869;51.442;7.540;2023-08-06T15:06:32;3.13;;;1.00;;
42200;SDS011;27869;51.442;7.540;2023-08-06T15:08:58;2.83;;;0.90;;
42200;SDS011;27869;51.442;7.540;2023-08-06T15:11:26;3.92;;;1.08;;